Time;durP1;ratioP1;P1;durP2;ratioP2;P2;SDS_P1;SDS_P2;PMS_P1;PMS_P2;Temp;Humidity;BMP_temperature;BMP_pressure;BME280_temperature;BME280_humidity;BME280_pressure;Samples;Min_cycle;Max_cycle;Signal;HPM_P1;HPM_P2
2023/10/07 00:00:37;;;;;;;25.52;10.32;;;12.10;99.90;;;;;;4994332;28;20478;-48
2023/10/07 00:03:05;;;;;;;19.45;10.25;;;12.10;99.90;;;;;;4994146;28;20048;-47
2023/10/07 00:05:35;;;;;;;19.60;9.35;;;12.10;99.90;;;;;;4992528;28;20033;-49
2023/10/07 00:08:01;;;;;;;23.50;9.95;;;12.00;99.90;;;;;;4994206;28;20109;-45
2023/10/07 00:10:31;;;;;;;16.42;9.13;;;12.10;99.90;;;;;;4994002;28;20381;-47
2023/10/07 00:13:00;;;;;;;24.98;11.02;;;12.10;99.90;;;;;;4993867;28;20452;-48
2023/10/07 00:15:28;;;;;;;21.73;10.15;;;12.10;99.90;;;;;;4993561;28;20022;-46
2023/10/07 00:18:11;;;;;;;21.98;10.38;;;12.10;99.90;;;;;;4993854;28;20026;-46
2023/10/07 00:20:39;;;;;;;20.20;11.00;;;12.10;99.90;;;;;;4992580;28;20027;-46
2023/10/07 00:23:06;;;;;;;18.98;10.07;;;12.10;99.90;;;;;;4993296;28;20018;-45
2023/10/07 00:25:32;;;;;;;29.50;10.18;;;12.10;99.90;;;;;;4993804;28;20026;-47
2023/10/07 00:27:58;;;;;;;24.55;11.80;;;12.20;99.90;;;;;;4993788;28;20469;-46
2023/10/07 00:30:27;;;;;;;20.00;11.02;;;12.20;99.90;;;;;;4993821;28;20031;-50
2023/10/07 00:32:55;;;;;;;20.25;10.52;;;12.20;99.90;;;;;;4993516;28;20019;-44
2023/10/07 00:35:27;;;;;;;26.50;11.68;;;12.20;99.90;;;;;;4993419;28;20050;-50
2023/10/07 00:37:53;;;;;;;25.55;11.23;;;12.10;99.90;;;;;;4993477;28;20031;-46
2023/10/07 00:40:31;;;;;;;22.75;12.02;;;12.10;99.90;;;;;;4993379;28;20453;-48
2023/10/07 00:42:57;;;;;;;21.77;10.10;;;12.10;99.90;;;;;;4993386;28;20026;-48
2023/10/07 00:45:24;;;;;;;23.98;11.60;;;12.10;99.90;;;;;;4991788;28;20030;-46
2023/10/07 00:47:52;;;;;;;21.48;11.02;;;12.10;99.90;;;;;;4993484;28;20034;-45
2023/10/07 00:50:20;;;;;;;25.70;11.07;;;12.10;99.90;;;;;;4993301;28;20022;-46
2023/10/07 00:55:30;;;;;;;21.13;10.82;;;12.10;99.90;;;;;;4993560;28;20118;-47
2023/10/07 00:58:13;;;;;;;27.77;12.18;;;12.10;99.90;;;;;;5014024;23;20039;-44
2023/10/07 01:03:19;;;;;;;23.65;11.40;;;11.90;99.90;;;;;;4992926;28;20154;-45
2023/10/07 01:08:29;;;;;;;24.00;11.35;;;11.90;99.90;;;;;;4993133;28;20022;-45
2023/10/07 01:11:07;;;;;;;30.85;11.45;;;11.90;99.90;;;;;;4992867;28;20104;-47
2023/10/07 01:13:36;;;;;;;24.45;10.68;;;11.80;99.90;;;;;;4992917;28;20022;-46
2023/10/07 01:16:08;;;;;;;21.38;10.65;;;11.80;99.90;;;;;;4993180;28;20078;-46
2023/10/07 01:18:40;;;;;;;22.42;11.02;;;11.80;99.90;;;;;;4992940;28;20101;-46
2023/10/07 01:21:11;;;;;;;26.33;11.52;;;11.70;99.90;;;;;;4992738;28;20031;-44
2023/10/07 01:23:44;;;;;;;22.95;11.13;;;11.70;99.90;;;;;;4992947;28;20161;-46
2023/10/07 01:26:20;;;;;;;22.92;11.13;;;11.60;99.90;;;;;;4992620;28;20517;-46
2023/10/07 01:28:46;;;;;;;22.95;11.38;;;11.60;99.90;;;;;;4991836;28;20041;-44
2023/10/07 01:31:18;;;;;;;26.30;12.10;;;11.50;99.90;;;;;;4992533;28;20030;-44
2023/10/07 01:33:47;;;;;;;34.75;20.80;;;11.50;99.90;;;;;;4991455;28;20118;-49
2023/10/07 01:36:24;;;;;;;28.85;13.60;;;11.50;99.90;;;;;;4992343;28;20015;-45
2023/10/07 01:38:54;;;;;;;27.52;13.32;;;11.50;99.90;;;;;;4992322;28;20437;-45
2023/10/07 01:41:22;;;;;;;32.55;11.95;;;11.50;99.90;;;;;;4992214;28;20022;-50
2023/10/07 01:43:56;;;;;;;21.40;11.07;;;11.50;99.90;;;;;;4991007;28;20397;-45
2023/10/07 01:46:22;;;;;;;20.92;10.77;;;11.30;99.90;;;;;;4992290;28;20033;-46
2023/10/07 01:48:57;;;;;;;22.90;11.80;;;11.50;99.90;;;;;;4992603;28;20628;-46
2023/10/07 01:51:30;;;;;;;21.17;10.30;;;11.50;99.90;;;;;;4992290;28;20538;-47
2023/10/07 01:53:58;;;;;;;24.55;11.65;;;11.50;99.90;;;;;;4992083;28;20109;-47
2023/10/07 01:56:26;;;;;;;24.52;12.55;;;11.50;99.90;;;;;;4992095;28;20025;-48
2023/10/07 01:58:53;;;;;;;23.13;11.43;;;11.40;99.90;;;;;;4992037;28;20026;-46
2023/10/07 02:01:21;;;;;;;27.08;13.27;;;11.40;99.90;;;;;;4992049;28;20022;-49
2023/10/07 02:03:48;;;;;;;26.85;11.60;;;11.40;99.90;;;;;;4992098;28;20442;-46
2023/10/07 02:06:18;;;;;;;22.40;11.57;;;11.40;99.90;;;;;;4991967;28;20132;-46
2023/10/07 02:08:44;;;;;;;22.88;10.95;;;11.40;99.90;;;;;;4992057;28;20054;-49
2023/10/07 02:11:09;;;;;;;20.15;11.15;;;11.40;99.90;;;;;;4992047;28;20154;-46
2023/10/07 02:13:35;;;;;;;23.92;10.77;;;11.40;99.90;;;;;;4991910;28;20038;-45
2023/10/07 02:16:05;;;;;;;24.60;11.98;;;11.30;99.90;;;;;;4991818;28;20485;-49
2023/10/07 02:18:35;;;;;;;26.50;12.30;;;11.30;99.90;;;;;;4992055;28;20027;-49
2023/10/07 02:21:12;;;;;;;18.13;11.07;;;11.30;99.90;;;;;;4990613;28;20018;-46
2023/10/07 02:23:43;;;;;;;26.58;12.27;;;11.20;99.90;;;;;;4991875;28;20069;-47
2023/10/07 02:26:18;;;;;;;25.70;12.90;;;11.20;99.90;;;;;;4992480;28;20023;-46
2023/10/07 02:28:46;;;;;;;22.05;10.98;;;11.20;99.90;;;;;;4991908;28;20437;-47
2023/10/07 02:31:20;;;;;;;31.20;12.57;;;11.20;99.90;;;;;;4992061;28;20044;-47
2023/10/07 02:33:51;;;;;;;21.10;11.95;;;11.20;99.90;;;;;;4991979;28;20037;-50
2023/10/07 02:36:36;;;;;;;21.13;11.85;;;11.30;99.90;;;;;;4991937;28;20023;-46
2023/10/07 02:39:18;;;;;;;25.83;12.75;;;11.20;99.90;;;;;;4991098;28;20054;-45
2023/10/07 02:41:47;;;;;;;24.88;11.45;;;11.20;99.90;;;;;;4992008;28;20034;-47
2023/10/07 02:44:18;;;;;;;31.17;13.15;;;11.10;99.90;;;;;;4991963;28;20397;-46
2023/10/07 02:46:52;;;;;;;24.63;11.75;;;11.10;99.90;;;;;;4995429;28;20379;-46
2023/10/07 02:49:20;;;;;;;26.25;11.57;;;11.00;99.90;;;;;;4995500;28;20030;-46
2023/10/07 02:51:49;;;;;;;22.58;11.45;;;10.90;99.90;;;;;;4995520;28;20026;-46
2023/10/07 02:54:18;;;;;;;22.90;11.52;;;10.90;99.90;;;;;;4995227;28;20501;-45
2023/10/07 02:57:07;;;;;;;27.08;12.45;;;11.00;99.90;;;;;;4994978;28;20031;-49
2023/10/07 02:59:50;;;;;;;20.63;11.30;;;10.80;99.90;;;;;;4995308;28;20034;-51
2023/10/07 03:04:43;;;;;;;27.40;13.05;;;10.80;99.90;;;;;;4996124;28;20031;-46
2023/10/07 03:07:16;;;;;;;26.77;12.32;;;10.80;99.90;;;;;;4995577;28;20053;-46
2023/10/07 03:09:45;;;;;;;21.65;11.65;;;10.80;99.90;;;;;;4995055;28;20034;-46
2023/10/07 03:12:15;;;;;;;34.13;14.52;;;10.80;99.90;;;;;;4995011;28;20486;-49
2023/10/07 03:14:43;;;;;;;30.13;12.25;;;10.70;99.90;;;;;;4995148;28;20406;-45
2023/10/07 03:17:18;;;;;;;25.88;13.05;;;10.70;99.90;;;;;;4994845;28;20490;-47
2023/10/07 03:19:52;;;;;;;22.98;12.15;;;10.70;99.90;;;;;;4994937;28;20030;-46
2023/10/07 03:22:19;;;;;;;25.25;12.77;;;10.60;99.90;;;;;;4994702;28;20026;-47
2023/10/07 03:24:54;;;;;;;22.92;11.60;;;10.60;99.90;;;;;;4994581;28;20076;-48
2023/10/07 03:27:25;;;;;;;26.70;12.25;;;10.60;99.90;;;;;;4994758;28;20461;-50
2023/10/07 03:30:12;;;;;;;29.90;12.95;;;10.60;99.90;;;;;;4994763;28;20057;-46
2023/10/07 03:32:58;;;;;;;29.15;12.68;;;10.60;99.90;;;;;;4994478;28;20545;-48
2023/10/07 03:35:36;;;;;;;26.45;13.02;;;10.60;99.90;;;;;;4993064;28;20037;-51
2023/10/07 03:38:10;;;;;;;27.50;13.27;;;10.50;99.90;;;;;;4994518;28;20036;-45
2023/10/07 03:40:38;;;;;;;27.15;14.52;;;10.50;99.90;;;;;;4994272;28;20022;-46
2023/10/07 03:43:06;;;;;;;31.92;13.95;;;10.50;99.90;;;;;;4994730;28;20481;-48
2023/10/07 03:45:32;;;;;;;27.02;13.48;;;10.50;99.90;;;;;;4994394;28;20026;-47
2023/10/07 03:47:57;;;;;;;27.05;13.82;;;10.40;99.90;;;;;;4994412;28;20014;-47
2023/10/07 03:50:35;;;;;;;24.67;12.20;;;10.40;99.90;;;;;;4994526;28;20057;-45
2023/10/07 03:53:01;;;;;;;28.92;12.57;;;10.40;99.90;;;;;;4994403;28;20026;-47
2023/10/07 03:55:29;;;;;;;28.02;14.02;;;10.40;99.90;;;;;;4994303;28;20101;-48
2023/10/07 03:57:55;;;;;;;22.52;13.00;;;10.40;99.90;;;;;;4993420;28;20041;-47
2023/10/07 04:00:21;;;;;;;26.50;12.43;;;10.40;99.90;;;;;;4994469;28;20528;-46
2023/10/07 04:02:47;;;;;;;25.90;12.50;;;10.30;99.90;;;;;;4994077;28;20109;-46
2023/10/07 04:05:13;;;;;;;27.17;14.05;;;10.30;99.90;;;;;;4994035;28;20101;-46
2023/10/07 04:07:39;;;;;;;28.50;13.15;;;10.30;99.90;;;;;;4993990;28;20082;-46
2023/10/07 04:10:31;;;;;;;26.05;12.77;;;10.20;99.90;;;;;;4994275;28;20027;-46
2023/10/07 04:12:56;;;;;;;24.10;13.07;;;10.30;99.90;;;;;;4994124;28;20058;-47
2023/10/07 04:15:28;;;;;;;29.85;13.00;;;10.20;99.90;;;;;;4993567;28;20027;-46
2023/10/07 04:17:53;;;;;;;28.77;14.70;;;10.20;99.90;;;;;;4993798;28;20402;-47
2023/10/07 04:20:22;;;;;;;27.67;13.05;;;10.20;99.90;;;;;;4993768;28;20105;-50
2023/10/07 04:23:02;;;;;;;29.20;13.38;;;10.20;99.90;;;;;;4993713;28;20041;-47
2023/10/07 04:25:29;;;;;;;22.77;12.40;;;10.20;99.90;;;;;;4993440;28;20031;-48
2023/10/07 04:27:55;;;;;;;27.05;14.00;;;10.20;99.90;;;;;;4993585;28;20084;-47
2023/10/07 04:30:25;;;;;;;26.92;13.68;;;10.20;99.90;;;;;;4993557;28;20026;-51
2023/10/07 04:32:55;;;;;;;25.83;12.48;;;10.20;99.90;;;;;;4993294;28;20018;-47
2023/10/07 04:35:26;;;;;;;24.15;12.23;;;10.30;99.90;;;;;;4993147;28;20556;-51
2023/10/07 04:37:54;;;;;;;22.70;12.40;;;10.20;99.90;;;;;;4993353;28;20400;-47
2023/10/07 04:45:37;;;;;;;22.05;12.00;;;10.40;99.90;;;;;;4993440;28;20429;-47
2023/10/07 04:48:31;;;;;;;26.45;11.93;;;10.40;99.90;;;;;;4993271;28;20101;-49
2023/10/07 04:51:12;;;;;;;24.42;12.25;;;10.40;99.90;;;;;;4993179;28;20026;-47
2023/10/07 04:53:40;;;;;;;24.92;12.35;;;10.50;99.90;;;;;;4993073;28;20031;-48
2023/10/07 04:56:07;;;;;;;25.45;12.27;;;10.50;99.90;;;;;;4993069;28;20402;-50
2023/10/07 04:58:33;;;;;;;27.42;12.30;;;10.50;99.90;;;;;;4992946;28;20038;-48
2023/10/07 05:01:06;;;;;;;23.92;12.05;;;10.50;99.90;;;;;;4993068;28;20037;-47
2023/10/07 05:03:33;;;;;;;24.67;12.10;;;10.50;99.90;;;;;;4992827;28;20126;-48
2023/10/07 05:05:59;;;;;;;27.95;11.63;;;10.50;99.90;;;;;;4992857;28;20445;-46
2023/10/07 05:08:27;;;;;;;26.27;11.85;;;10.60;99.90;;;;;;4993116;28;20033;-47
2023/10/07 05:11:04;;;;;;;26.23;11.45;;;10.60;99.90;;;;;;4992789;28;20542;-46
2023/10/07 05:13:32;;;;;;;22.75;12.20;;;10.60;99.90;;;;;;4992614;28;20067;-46
2023/10/07 05:15:58;;;;;;;20.40;10.10;;;10.60;99.90;;;;;;4992547;28;20072;-49
2023/10/07 05:18:24;;;;;;;26.33;12.02;;;10.70;99.90;;;;;;4992702;28;20026;-47
2023/10/07 05:20:51;;;;;;;23.40;11.82;;;10.70;99.90;;;;;;4992922;28;20105;-46
2023/10/07 05:23:18;;;;;;;27.00;12.13;;;10.80;99.90;;;;;;4992989;28;20046;-49
2023/10/07 05:25:48;;;;;;;23.58;10.98;;;10.80;99.90;;;;;;4993419;28;20026;-46
2023/10/07 05:28:22;;;;;;;25.45;11.43;;;10.80;99.90;;;;;;4995919;28;20203;-47
2023/10/07 05:30:52;;;;;;;24.52;10.73;;;10.80;99.90;;;;;;4993523;28;20101;-47
2023/10/07 05:33:20;;;;;;;23.17;11.93;;;10.80;99.90;;;;;;4993698;28;20069;-45
2023/10/07 05:35:49;;;;;;;22.65;11.18;;;10.90;99.90;;;;;;4992406;28;20030;-48
2023/10/07 05:38:17;;;;;;;24.58;10.85;;;10.80;99.90;;;;;;4991461;28;20026;-45
2023/10/07 05:40:43;;;;;;;20.70;10.63;;;10.80;99.90;;;;;;4992206;28;20038;-46
2023/10/07 05:43:09;;;;;;;25.40;11.73;;;10.90;99.90;;;;;;4992489;28;20425;-50
2023/10/07 05:45:35;;;;;;;21.45;11.10;;;10.90;99.90;;;;;;4990891;28;20026;-49
2023/10/07 05:48:01;;;;;;;17.50;10.13;;;10.90;99.90;;;;;;4992277;28;20026;-50
2023/10/07 05:50:32;;;;;;;19.42;10.73;;;10.90;99.90;;;;;;4992406;28;20026;-47
2023/10/07 05:52:59;;;;;;;22.40;10.95;;;11.00;99.90;;;;;;4992387;28;20371;-46
2023/10/07 05:55:24;;;;;;;20.33;10.02;;;11.00;99.90;;;;;;4992158;28;20057;-47
2023/10/07 05:57:52;;;;;;;28.95;11.10;;;11.00;99.90;;;;;;4992299;28;20103;-48
2023/10/07 06:00:18;;;;;;;19.52;10.73;;;11.00;99.90;;;;;;4992355;28;20419;-49
2023/10/07 06:02:43;;;;;;;17.10;10.00;;;11.00;99.90;;;;;;4992401;28;20453;-49
2023/10/07 06:05:12;;;;;;;26.17;10.60;;;11.00;99.90;;;;;;4992774;28;20088;-47
2023/10/07 06:07:38;;;;;;;26.25;11.07;;;11.00;99.90;;;;;;4992643;28;20051;-45
2023/10/07 06:10:06;;;;;;;23.67;11.18;;;11.00;99.90;;;;;;4992312;28;20022;-45
2023/10/07 06:12:35;;;;;;;21.63;11.30;;;11.10;99.90;;;;;;4992398;28;20034;-50
2023/10/07 06:15:00;;;;;;;21.98;10.57;;;11.10;99.90;;;;;;4991857;28;20077;-46
2023/10/07 06:17:26;;;;;;;19.30;11.27;;;11.10;99.90;;;;;;4992208;28;20438;-49
2023/10/07 06:19:52;;;;;;;21.35;9.88;;;11.10;99.90;;;;;;4993293;28;20517;-46
2023/10/07 06:22:17;;;;;;;21.67;11.10;;;11.10;99.90;;;;;;4996230;28;20058;-46
2023/10/07 06:24:43;;;;;;;20.63;11.63;;;11.10;99.90;;;;;;4996601;28;20482;-45
2023/10/07 06:27:13;;;;;;;23.95;11.07;;;11.10;99.90;;;;;;4996381;28;20031;-46
2023/10/07 06:29:45;;;;;;;19.15;10.45;;;11.10;99.90;;;;;;4996225;28;20022;-45
2023/10/07 06:32:23;;;;;;;18.20;10.57;;;11.10;99.90;;;;;;4996256;28;20023;-46
2023/10/07 06:34:51;;;;;;;25.92;12.02;;;11.10;99.90;;;;;;4995741;28;20038;-48
2023/10/07 06:37:26;;;;;;;20.80;11.32;;;11.10;99.90;;;;;;4996111;28;20423;-48
2023/10/07 06:39:51;;;;;;;20.35;9.90;;;11.20;99.90;;;;;;4996203;28;20383;-48
2023/10/07 06:42:24;;;;;;;24.33;12.10;;;11.20;99.90;;;;;;4995660;28;20025;-51
2023/10/07 06:44:52;;;;;;;24.25;11.50;;;11.20;99.90;;;;;;4995472;28;20037;-49
2023/10/07 06:47:18;;;;;;;27.30;12.80;;;11.20;99.90;;;;;;4995871;28;20026;-46
2023/10/07 06:49:43;;;;;;;28.17;11.15;;;11.10;99.90;;;;;;4995898;28;20537;-48
2023/10/07 06:52:12;;;;;;;20.90;11.43;;;11.10;99.90;;;;;;4996247;28;20172;-47
2023/10/07 06:54:39;;;;;;;22.90;12.88;;;11.10;99.90;;;;;;4995687;28;20062;-47
2023/10/07 06:59:32;;;;;;;25.05;11.82;;;11.10;99.90;;;;;;4992056;28;20426;-44
2023/10/07 07:02:05;;;;;;;26.85;12.25;;;11.10;99.90;;;;;;4995372;28;20026;-47
2023/10/07 07:04:31;;;;;;;21.42;11.48;;;11.20;99.90;;;;;;4995539;28;20022;-48
2023/10/07 07:07:10;;;;;;;19.42;10.93;;;11.20;99.90;;;;;;4994031;28;20041;-49
2023/10/07 07:12:16;;;;;;;20.02;11.32;;;11.20;99.90;;;;;;4975406;28;20085;-45
2023/10/07 07:14:50;;;;;;;21.75;11.80;;;11.20;99.90;;;;;;4975406;28;20057;-45
2023/10/07 07:17:30;;;;;;;21.60;11.57;;;11.20;99.90;;;;;;4974620;28;20022;-47
2023/10/07 07:22:44;;;;;;;23.23;10.65;;;11.20;99.90;;;;;;4975990;28;20023;-46
2023/10/07 07:25:11;;;;;;;22.33;10.63;;;11.30;99.90;;;;;;4975414;28;20023;-45
2023/10/07 07:27:38;;;;;;;23.23;10.95;;;11.30;99.90;;;;;;4975749;28;20101;-46
2023/10/07 07:30:04;;;;;;;26.63;12.57;;;11.40;99.90;;;;;;4975649;28;20085;-46
2023/10/07 07:32:35;;;;;;;23.02;10.90;;;11.40;99.90;;;;;;4975533;28;20062;-47
2023/10/07 07:35:04;;;;;;;21.35;9.93;;;11.50;99.90;;;;;;4975091;28;20085;-45
2023/10/07 07:37:33;;;;;;;19.90;10.18;;;11.60;99.90;;;;;;4975522;28;20026;-46
2023/10/07 07:40:28;;;;;;;19.50;9.50;;;11.70;99.90;;;;;;4975611;28;20027;-48
2023/10/07 07:42:55;;;;;;;24.02;11.07;;;11.70;99.90;;;;;;4975192;28;20045;-46
2023/10/07 07:45:26;;;;;;;22.95;10.88;;;11.80;99.90;;;;;;4975339;28;20022;-47
2023/10/07 07:47:55;;;;;;;24.75;11.80;;;11.90;99.90;;;;;;4975390;28;20074;-46
2023/10/07 07:50:21;;;;;;;19.65;8.77;;;11.90;99.90;;;;;;4975315;28;20038;-47
2023/10/07 07:52:49;;;;;;;18.63;10.30;;;11.90;99.90;;;;;;4975012;28;20104;-49
2023/10/07 07:55:15;;;;;;;19.90;10.80;;;11.90;99.90;;;;;;4974713;28;20394;-46
2023/10/07 07:57:44;;;;;;;25.60;10.25;;;11.90;99.90;;;;;;4974712;28;20042;-46
2023/10/07 08:00:22;;;;;;;24.27;11.40;;;12.00;99.90;;;;;;4989848;28;20015;-50
2023/10/07 08:02:55;;;;;;;21.52;10.80;;;12.00;99.90;;;;;;4974645;28;20085;-49
2023/10/07 08:05:21;;;;;;;23.08;10.73;;;12.00;99.90;;;;;;4974556;28;20066;-46
2023/10/07 08:07:51;;;;;;;21.23;10.50;;;12.00;99.90;;;;;;4989625;28;20051;-48
2023/10/07 08:10:20;;;;;;;20.15;10.23;;;12.10;99.90;;;;;;4974903;28;20062;-49
2023/10/07 08:12:47;;;;;;;18.38;9.27;;;12.10;99.90;;;;;;4974760;28;20375;-46
2023/10/07 08:17:39;;;;;;;22.48;10.45;;;12.30;99.90;;;;;;4974534;28;20029;-46
2023/10/07 08:20:12;;;;;;;21.35;11.05;;;12.40;99.90;;;;;;4974407;28;20052;-51
2023/10/07 08:22:45;;;;;;;19.20;9.73;;;12.60;99.90;;;;;;4974405;28;20027;-47
2023/10/07 08:25:11;;;;;;;19.13;9.43;;;12.60;99.90;;;;;;4974367;28;20037;-46
2023/10/07 08:27:49;;;;;;;17.95;9.85;;;12.80;99.90;;;;;;4974200;28;20022;-45
2023/10/07 08:30:29;;;;;;;18.80;9.30;;;12.90;99.90;;;;;;4974283;28;20085;-46
2023/10/07 08:32:55;;;;;;;20.50;8.57;;;13.00;99.90;;;;;;4974134;28;20099;-49
2023/10/07 08:35:25;;;;;;;20.45;10.52;;;13.10;99.90;;;;;;4973773;28;20138;-49
2023/10/07 08:37:51;;;;;;;20.50;9.80;;;13.20;99.90;;;;;;4974159;28;20027;-52
2023/10/07 08:40:28;;;;;;;25.40;10.45;;;13.20;99.90;;;;;;4973843;28;20029;-47
2023/10/07 08:42:58;;;;;;;18.98;9.68;;;13.20;99.90;;;;;;4973330;28;20035;-47
2023/10/07 08:45:28;;;;;;;19.02;9.75;;;13.30;99.90;;;;;;4973719;28;20105;-49
2023/10/07 08:48:08;;;;;;;18.25;9.70;;;13.30;99.90;;;;;;4972674;28;20027;-52
2023/10/07 08:50:42;;;;;;;20.13;9.30;;;13.50;99.90;;;;;;4973948;28;20399;-46
2023/10/07 08:53:08;;;;;;;18.08;9.07;;;13.60;99.90;;;;;;4972235;28;20114;-50
2023/10/07 08:55:34;;;;;;;18.20;9.43;;;13.80;99.90;;;;;;4973629;28;20134;-46
2023/10/07 08:58:02;;;;;;;18.48;9.25;;;14.10;99.90;;;;;;4972432;28;20030;-50
2023/10/07 09:00:33;;;;;;;18.45;10.23;;;14.40;99.90;;;;;;4973707;28;20023;-46
2023/10/07 09:03:14;;;;;;;18.52;8.88;;;14.70;99.90;;;;;;4973566;28;20058;-45
2023/10/07 09:05:40;;;;;;;19.35;10.20;;;15.00;99.90;;;;;;4973432;28;20027;-44
2023/10/07 09:08:11;;;;;;;15.35;8.68;;;15.30;99.90;;;;;;4973490;28;20471;-47
2023/10/07 09:10:40;;;;;;;14.18;8.75;;;15.50;99.90;;;;;;4973627;28;20443;-45
2023/10/07 09:13:12;;;;;;;17.50;8.23;;;15.50;99.90;;;;;;4973399;28;20023;-48
2023/10/07 09:15:42;;;;;;;15.88;8.60;;;15.20;99.90;;;;;;4988298;28;20030;-45
2023/10/07 09:18:10;;;;;;;23.42;9.55;;;15.00;99.90;;;;;;4973830;28;20614;-46
2023/10/07 09:20:45;;;;;;;15.85;8.73;;;14.80;99.90;;;;;;4973648;28;20467;-51
2023/10/07 09:23:20;;;;;;;18.17;9.32;;;14.70;99.90;;;;;;4974020;28;20434;-47
2023/10/07 09:25:52;;;;;;;19.58;8.55;;;14.70;99.90;;;;;;4973259;28;20479;-47
2023/10/07 09:28:35;;;;;;;12.60;7.82;;;14.60;99.90;;;;;;4973563;28;20407;-47
2023/10/07 09:31:06;;;;;;;15.85;8.95;;;14.70;99.90;;;;;;4973448;28;20034;-51
2023/10/07 09:33:36;;;;;;;16.73;8.00;;;14.60;99.90;;;;;;4973311;28;20447;-44
2023/10/07 09:36:33;;;;;;;16.70;8.82;;;14.70;99.90;;;;;;4973317;28;20023;-51
2023/10/07 09:39:13;;;;;;;14.70;8.43;;;14.70;99.90;;;;;;4972936;28;20039;-46
2023/10/07 09:41:37;;;;;;;18.45;8.88;;;14.80;99.90;;;;;;4972741;28;20027;-46
2023/10/07 09:44:09;;;;;;;20.33;8.35;;;14.80;99.90;;;;;;4972945;28;20035;-45
2023/10/07 09:46:39;;;;;;;15.65;8.20;;;14.80;99.90;;;;;;4972960;28;20038;-45
2023/10/07 09:49:06;;;;;;;17.85;7.35;;;14.80;99.90;;;;;;4973299;28;20027;-48
2023/10/07 09:51:44;;;;;;;14.35;8.48;;;14.90;99.90;;;;;;4973164;28;20042;-41
2023/10/07 09:54:18;;;;;;;16.42;8.15;;;15.00;99.90;;;;;;4972144;28;20023;-45
2023/10/07 09:57:19;;;;;;;20.10;7.97;;;15.10;99.90;;;;;;4972659;28;20506;-46
2023/10/07 10:03:34;;;;;;;14.90;7.70;;;15.50;99.90;;;;;;4972751;28;20561;-49
2023/10/07 10:06:07;;;;;;;18.98;7.82;;;15.90;99.90;;;;;;4972593;28;20114;-46
2023/10/07 10:08:59;;;;;;;15.38;7.60;;;16.20;99.90;;;;;;4973416;28;20043;-50
2023/10/07 10:16:45;;;;;;;15.77;7.03;;;16.40;99.90;;;;;;4972792;28;20482;-49
2023/10/07 10:19:18;;;;;;;15.05;8.40;;;16.40;99.90;;;;;;4972678;28;20456;-49
2023/10/07 10:21:44;;;;;;;15.65;7.57;;;16.40;99.90;;;;;;4972458;28;20027;-47
2023/10/07 10:24:16;;;;;;;17.63;8.27;;;16.50;99.90;;;;;;4972186;28;20072;-50
2023/10/07 10:26:44;;;;;;;16.80;7.38;;;16.50;99.90;;;;;;4972499;28;20034;-48
2023/10/07 10:29:16;;;;;;;13.02;7.38;;;16.40;99.90;;;;;;4972719;28;20023;-46
2023/10/07 10:31:58;;;;;;;16.30;8.63;;;16.50;99.90;;;;;;4973192;28;20093;-47
2023/10/07 10:34:26;;;;;;;17.20;7.82;;;16.60;99.90;;;;;;4972460;28;20031;-49
2023/10/07 10:36:55;;;;;;;18.70;7.03;;;16.70;99.90;;;;;;4972280;28;20023;-46
2023/10/07 10:39:25;;;;;;;12.05;6.95;;;16.80;99.90;;;;;;4972204;28;20056;-47
2023/10/07 10:41:54;;;;;;;13.80;7.28;;;16.90;99.90;;;;;;4972113;28;20050;-46
2023/10/07 10:44:23;;;;;;;14.77;6.82;;;16.90;99.90;;;;;;4972399;28;20062;-49
2023/10/07 10:46:51;;;;;;;12.38;7.68;;;16.90;99.90;;;;;;4972263;28;20038;-47
2023/10/07 10:49:21;;;;;;;12.18;6.45;;;16.90;99.90;;;;;;4972628;28;20097;-48
2023/10/07 10:51:51;;;;;;;12.52;6.43;;;16.80;99.90;;;;;;4972893;28;20122;-51
2023/10/07 10:54:18;;;;;;;13.70;7.05;;;16.80;99.90;;;;;;4972568;28;20057;-49
2023/10/07 10:56:49;;;;;;;11.77;6.55;;;16.80;99.90;;;;;;4972145;28;20541;-49
2023/10/07 10:59:16;;;;;;;13.90;7.07;;;16.90;99.90;;;;;;4972302;28;20126;-50
2023/10/07 11:01:44;;;;;;;13.63;6.53;;;17.00;99.90;;;;;;4972318;28;20034;-47
2023/10/07 11:04:12;;;;;;;12.30;5.82;;;17.20;99.90;;;;;;4972262;28;20019;-44
2023/10/07 11:06:41;;;;;;;18.05;6.18;;;17.30;99.90;;;;;;4972850;28;20085;-47
2023/10/07 11:09:09;;;;;;;11.70;6.22;;;17.60;99.90;;;;;;4975991;28;20031;-49
2023/10/07 11:11:35;;;;;;;14.43;7.75;;;17.60;99.90;;;;;;4974778;28;20050;-47
2023/10/07 11:14:09;;;;;;;15.27;7.20;;;17.60;99.90;;;;;;4975729;28;20022;-48
2023/10/07 11:16:57;;;;;;;19.33;6.68;;;17.60;99.90;;;;;;4975612;28;20498;-47
2023/10/07 11:19:25;;;;;;;12.50;5.95;;;17.60;99.90;;;;;;4975758;28;20094;-49
2023/10/07 11:21:51;;;;;;;11.45;6.47;;;17.60;99.90;;;;;;4975480;28;20498;-50
2023/10/07 11:24:30;;;;;;;12.48;6.47;;;17.60;99.90;;;;;;4975292;28;20126;-50
2023/10/07 11:26:59;;;;;;;13.45;6.72;;;17.60;99.90;;;;;;4975576;28;20395;-50
2023/10/07 11:29:32;;;;;;;72.57;53.20;;;17.70;99.90;;;;;;4975326;28;20022;-49
2023/10/07 11:32:07;;;;;;;17.27;12.10;;;17.80;99.90;;;;;;4975209;28;20130;-48
2023/10/07 11:34:38;;;;;;;10.10;6.05;;;17.90;99.90;;;;;;4975455;28;20026;-49
2023/10/07 11:37:14;;;;;;;11.57;5.25;;;18.10;99.90;;;;;;4975320;28;20023;-45
2023/10/07 11:39:45;;;;;;;8.32;5.18;;;18.20;99.90;;;;;;4975212;28;20082;-44
2023/10/07 11:42:12;;;;;;;7.93;5.03;;;18.30;99.90;;;;;;4975819;28;20027;-45
2023/10/07 11:44:38;;;;;;;8.15;4.55;;;18.30;99.90;;;;;;4975218;28;20451;-46
2023/10/07 11:47:07;;;;;;;10.02;4.97;;;18.30;99.90;;;;;;4975262;28;20027;-44
2023/10/07 11:49:34;;;;;;;10.60;5.05;;;18.30;99.90;;;;;;4975457;28;20410;-52
2023/10/07 11:52:01;;;;;;;14.32;5.65;;;18.40;99.90;;;;;;4975111;28;20027;-52
2023/10/07 11:54:28;;;;;;;10.57;4.78;;;18.50;99.90;;;;;;4974993;28;20038;-47
2023/10/07 11:56:53;;;;;;;7.13;4.13;;;18.60;99.90;;;;;;4974451;28;20033;-49
2023/10/07 11:59:19;;;;;;;6.15;3.67;;;18.60;99.90;;;;;;4974439;28;20031;-45
2023/10/07 12:01:47;;;;;;;8.90;4.05;;;18.80;99.90;;;;;;4974963;28;20023;-46
2023/10/07 12:04:12;;;;;;;7.00;3.97;;;18.90;99.90;;;;;;4974557;28;20379;-46
2023/10/07 12:06:38;;;;;;;6.35;4.47;;;19.00;99.90;;;;;;4974182;28;20034;-46
2023/10/07 12:09:07;;;;;;;7.57;3.70;;;19.00;99.90;;;;;;4974508;28;20084;-46
2023/10/07 12:11:32;;;;;;;8.52;3.70;;;19.00;99.90;;;;;;4974560;28;20026;-49
2023/10/07 12:13:58;;;;;;;8.95;4.05;;;19.00;99.90;;;;;;4974201;28;20648;-47
2023/10/07 12:16:24;;;;;;;7.63;3.88;;;19.10;99.90;;;;;;4974329;28;20041;-50
2023/10/07 12:18:50;;;;;;;7.47;3.60;;;19.10;99.90;;;;;;4973642;28;20479;-46
2023/10/07 12:21:15;;;;;;;7.15;3.72;;;19.20;99.90;;;;;;4974209;28;20029;-48
2023/10/07 12:23:43;;;;;;;6.85;3.92;;;19.30;99.90;;;;;;4989340;28;20058;-52
2023/10/07 12:26:12;;;;;;;8.60;4.18;;;19.30;99.90;;;;;;4974493;28;20043;-47
2023/10/07 12:28:37;;;;;;;48.67;34.42;;;19.30;99.90;;;;;;4974091;28;20031;-47
2023/10/07 12:31:13;;;;;;;9.43;5.45;;;19.30;99.90;;;;;;4974463;28;20031;-47
2023/10/07 12:33:39;;;;;;;11.60;5.88;;;19.40;99.90;;;;;;4989592;28;20057;-50
2023/10/07 12:36:15;;;;;;;12.07;4.45;;;19.40;99.90;;;;;;4973724;28;20023;-48
2023/10/07 12:38:41;;;;;;;10.45;4.00;;;19.40;99.90;;;;;;4974092;28;20038;-46
2023/10/07 12:41:08;;;;;;;7.35;4.15;;;19.40;99.90;;;;;;4972007;28;20435;-49
2023/10/07 12:43:34;;;;;;;11.75;4.35;;;19.50;99.90;;;;;;4971559;28;20101;-50
2023/10/07 12:46:00;;;;;;;5.30;3.38;;;19.50;99.90;;;;;;4972294;28;20406;-48
2023/10/07 12:48:27;;;;;;;9.40;4.50;;;19.50;99.90;;;;;;4973431;28;20023;-49
2023/10/07 12:50:53;;;;;;;7.63;4.20;;;19.50;99.90;;;;;;4972278;28;20023;-43
2023/10/07 12:53:18;;;;;;;6.55;4.25;;;19.50;99.90;;;;;;4973788;28;20081;-49
2023/10/07 12:55:44;;;;;;;8.02;3.90;;;19.50;99.90;;;;;;4973387;28;20520;-46
2023/10/07 12:58:15;;;;;;;6.38;3.55;;;19.60;99.90;;;;;;4974306;28;20058;-50
2023/10/07 13:00:42;;;;;;;7.25;3.72;;;19.50;99.90;;;;;;4973681;28;20023;-48
2023/10/07 13:03:08;;;;;;;9.43;3.65;;;19.60;99.90;;;;;;4973262;28;20026;-48
2023/10/07 13:05:42;;;;;;;4.97;3.70;;;19.60;99.90;;;;;;4971852;28;20218;-47
2023/10/07 13:08:15;;;;;;;8.02;4.18;;;19.60;99.90;;;;;;4973533;28;20050;-47
2023/10/07 13:10:41;;;;;;;6.53;4.22;;;19.70;99.90;;;;;;4973778;28;20030;-50
2023/10/07 13:13:07;;;;;;;8.18;3.72;;;19.70;99.90;;;;;;4972161;28;20034;-48
2023/10/07 13:15:36;;;;;;;12.70;4.43;;;19.80;99.90;;;;;;4973320;28;20085;-48
2023/10/07 13:18:02;;;;;;;4.30;3.55;;;19.80;99.90;;;;;;4973280;28;20023;-48
2023/10/07 13:20:28;;;;;;;5.53;3.83;;;19.80;99.90;;;;;;4973517;28;20015;-46